Time;durP1;ratioP1;P1;durP2;ratioP2;P2;SDS_P1;SDS_P2;PMS_P1;PMS_P2;Temp;Humidity;BMP_temperature;BMP_pressure;BME280_temperature;BME280_humidity;BME280_pressure;Samples;Min_cycle;Max_cycle;Signal;HPM_P1;HPM_P2
2023/02/23 00:01:20;;;;;;;21.88;15.25;;;;;;;5.81;100.00;92323.06;6226620;23;20001;-79
2023/02/23 00:03:49;;;;;;;22.63;15.30;;;;;;;5.79;100.00;92320.72;6226660;23;20028;-79
2023/02/23 00:06:18;;;;;;;21.67;15.02;;;;;;;5.79;100.00;92323.31;6225922;23;20391;-79
2023/02/23 00:08:46;;;;;;;20.33;15.23;;;;;;;5.76;100.00;92315.25;6224496;23;20084;-78
2023/02/23 00:11:14;;;;;;;22.05;14.60;;;;;;;5.73;100.00;92318.38;6224217;23;20060;-79
2023/02/23 00:13:45;;;;;;;20.40;15.02;;;;;;;5.74;100.00;92312.94;6224521;23;20013;-79
2023/02/23 00:16:13;;;;;;;20.50;14.25;;;;;;;5.73;100.00;92311.38;6226692;23;20027;-79
2023/02/23 00:18:59;;;;;;;21.42;15.20;;;;;;;5.69;100.00;92306.94;6199680;23;20028;-79
2023/02/23 00:21:29;;;;;;;21.98;15.20;;;;;;;5.70;100.00;92309.28;6223193;23;20008;-79
2023/02/23 00:24:00;;;;;;;17.83;13.57;;;;;;;5.70;100.00;92316.31;6227185;23;20090;-80
2023/02/23 00:26:33;;;;;;;20.80;14.90;;;;;;;5.70;100.00;92316.31;6226505;23;20019;-79
2023/02/23 00:29:02;;;;;;;18.90;13.60;;;;;;;5.69;100.00;92317.34;6199491;23;20009;-79
2023/02/23 00:31:28;;;;;;;21.73;14.38;;;;;;;5.67;100.00;92316.81;6199151;23;20012;-80
2023/02/23 00:33:56;;;;;;;20.55;15.05;;;;;;;5.64;100.00;92310.31;6173675;23;20017;-78
2023/02/23 00:36:27;;;;;;;21.17;14.52;;;;;;;5.64;100.00;92312.94;6224538;23;20001;-79
2023/02/23 00:38:55;;;;;;;20.63;14.65;;;;;;;5.61;100.00;92310.84;6223049;23;20070;-79
2023/02/23 00:41:32;;;;;;;21.98;14.35;;;;;;;5.62;100.00;92309.81;6225356;23;20004;-79
2023/02/23 00:43:59;;;;;;;19.08;15.13;;;;;;;5.60;100.00;92311.88;6198420;23;20472;-79
2023/02/23 00:46:28;;;;;;;21.55;14.98;;;;;;;5.59;100.00;92308.50;6224535;23;20028;-79
2023/02/23 00:48:56;;;;;;;20.85;15.15;;;;;;;5.57;100.00;92307.22;6199123;23;20092;-78
2023/02/23 00:51:29;;;;;;;20.40;15.18;;;;;;;5.57;100.00;92310.59;6198754;23;20024;-79
2023/02/23 00:53:56;;;;;;;24.15;14.45;;;;;;;5.58;100.00;92306.97;6226523;23;20012;-79
2023/02/23 00:56:23;;;;;;;22.50;15.55;;;;;;;5.55;100.00;92307.47;6198754;23;20330;-79
2023/02/23 00:58:49;;;;;;;22.75;16.15;;;;;;;5.58;100.00;92306.16;6225923;23;20445;-79
2023/02/23 01:01:16;;;;;;;24.20;16.40;;;;;;;5.55;100.00;92310.06;6149532;23;20071;-79
2023/02/23 01:03:43;;;;;;;24.60;17.05;;;;;;;5.55;100.00;92310.06;6225131;23;20019;-80
2023/02/23 01:06:12;;;;;;;23.30;16.95;;;;;;;5.57;100.00;92310.59;6198035;23;20088;-79
2023/02/23 01:08:42;;;;;;;24.52;16.15;;;;;;;5.58;100.00;92306.97;6198578;23;20012;-79
2023/02/23 01:11:19;;;;;;;26.52;18.27;;;;;;;5.57;100.00;92313.19;6198946;23;20016;-79
2023/02/23 01:13:50;;;;;;;24.15;18.10;;;;;;;5.57;100.00;92305.38;6225189;23;20515;-78
2023/02/23 01:16:19;;;;;;;25.23;17.60;;;;;;;5.59;100.00;92311.09;6199438;23;20036;-79
2023/02/23 01:18:50;;;;;;;24.75;17.83;;;;;;;5.58;100.00;92308.75;6198622;23;20001;-80
2023/02/23 01:21:31;;;;;;;23.15;16.60;;;;;;;5.58;100.00;92306.97;6199317;23;20012;-78
2023/02/23 01:23:57;;;;;;;24.87;16.63;;;;;;;5.55;100.00;92310.06;6199414;23;20013;-79
2023/02/23 01:26:28;;;;;;;26.80;17.83;;;;;;;5.57;100.00;92302.78;6204607;23;20114;-79
2023/02/23 01:29:07;;;;;;;21.90;16.27;;;;;;;5.55;100.00;92299.66;6224840;23;20091;-79
2023/02/23 01:31:36;;;;;;;27.27;17.08;;;;;;;5.55;100.00;92294.47;6225008;23;20092;-79
2023/02/23 01:34:02;;;;;;;25.05;17.23;;;;;;;5.57;100.00;92305.38;6223779;23;20012;-79
2023/02/23 01:36:33;;;;;;;22.40;15.80;;;;;;;5.55;100.00;92296.31;6224334;23;20013;-77
2023/02/23 01:39:00;;;;;;;19.92;15.80;;;;;;;5.57;100.00;92302.03;6225182;23;20016;-79
2023/02/23 01:41:27;;;;;;;19.92;15.70;;;;;;;5.57;100.00;92299.41;6223598;23;20008;-79
2023/02/23 01:44:05;;;;;;;24.65;16.38;;;;;;;5.55;100.00;92297.06;6199070;23;20043;-79
2023/02/23 01:46:33;;;;;;;24.67;16.00;;;;;;;5.55;100.00;92294.47;6226035;23;20013;-79
2023/02/23 01:49:00;;;;;;;24.83;16.52;;;;;;;5.57;100.00;92287.22;6224344;23;20023;-80
2023/02/23 01:51:30;;;;;;;25.88;16.42;;;;;;;5.53;100.00;92288.75;6224438;23;20016;-79
2023/02/23 01:54:09;;;;;;;23.85;16.85;;;;;;;5.51;100.00;92288.25;6225252;23;20008;-79
2023/02/23 01:56:42;;;;;;;25.02;17.23;;;;;;;5.51;100.00;92288.25;6226632;23;20063;-79
2023/02/23 01:59:14;;;;;;;25.92;17.40;;;;;;;5.50;100.00;92291.88;6225874;22;20058;-79
2023/02/23 02:01:41;;;;;;;25.33;16.60;;;;;;;5.52;100.00;92294.25;6223644;23;20005;-78
2023/02/23 02:04:15;;;;;;;23.23;16.00;;;;;;;5.51;100.00;92287.47;6223522;23;20023;-79
2023/02/23 02:06:43;;;;;;;23.38;16.45;;;;;;;5.49;100.00;92290.31;6223580;23;20058;-79
2023/02/23 02:09:16;;;;;;;26.05;17.77;;;;;;;5.45;100.00;92278.91;6224740;23;20003;-77
2023/02/23 02:11:45;;;;;;;25.08;17.55;;;;;;;5.50;100.00;92281.50;6223197;23;20012;-79
2023/02/23 02:14:19;;;;;;;26.05;16.83;;;;;;;5.49;100.00;92282.53;6225096;23;20437;-79
2023/02/23 02:16:53;;;;;;;25.27;17.30;;;;;;;5.48;100.00;92283.56;6223658;23;20319;-79
2023/02/23 02:19:49;;;;;;;24.92;16.50;;;;;;;5.48;100.00;92283.56;6225769;23;20008;-80
2023/02/23 02:22:15;;;;;;;21.33;15.20;;;;;;;5.47;100.00;92278.63;6224461;23;20004;-78
2023/02/23 02:25:10;;;;;;;22.02;15.05;;;;;;;5.46;100.00;92275.25;6224779;23;20031;-78
2023/02/23 02:27:56;;;;;;;22.90;15.52;;;;;;;5.45;100.00;92278.13;6223211;23;20020;-79
2023/02/23 02:30:57;;;;;;;22.23;16.17;;;;;;;5.42;100.00;92274.22;6223341;23;20017;-79
2023/02/23 02:33:30;;;;;;;23.25;16.20;;;;;;;5.42;100.00;92274.22;6225464;23;20012;-79
2023/02/23 02:36:38;;;;;;;25.45;15.80;;;;;;;5.40;100.00;92271.91;6224111;23;20411;-79
2023/02/23 02:39:06;;;;;;;24.20;16.38;;;;;;;5.40;100.00;92273.69;6223606;23;20013;-78
2023/02/23 02:42:04;;;;;;;28.23;16.75;;;;;;;5.40;100.00;92265.91;6224656;23;19999;-79
2023/02/23 02:44:54;;;;;;;26.40;16.25;;;;;;;5.40;100.00;92260.72;6224806;23;20016;-78
2023/02/23 02:47:59;;;;;;;25.65;16.95;;;;;;;5.40;100.00;92261.53;6223183;23;20016;-78
2023/02/23 02:50:39;;;;;;;23.25;16.00;;;;;;;5.39;100.00;92259.19;6223387;23;20059;-79
2023/02/23 02:53:36;;;;;;;27.10;16.23;;;;;;;5.37;100.00;92256.06;6223944;23;20008;-79
2023/02/23 02:56:05;;;;;;;22.70;15.77;;;;;;;5.41;100.00;92262.28;6193474;23;20146;-79
2023/02/23 02:58:34;;;;;;;22.10;15.38;;;;;;;5.38;100.00;92258.41;6197502;23;20000;-80
2023/02/23 04:19:51;;;;;;;17.00;10.63;;;;;;;5.15;100.00;92248.50;6222008;23;20029;-77
2023/02/23 04:22:16;;;;;;;14.30;10.73;;;;;;;5.17;100.00;92252.41;6221316;23;20020;-79
2023/02/23 04:24:42;;;;;;;16.25;10.52;;;;;;;5.16;100.00;92245.66;6220932;23;20087;-80
2023/02/23 04:27:07;;;;;;;16.50;10.90;;;;;;;5.18;100.00;92251.38;6221696;23;20016;-79
2023/02/23 04:29:33;;;;;;;14.65;10.68;;;;;;;5.19;100.00;92252.91;6196399;23;20024;-79
2023/02/23 04:31:59;;;;;;;15.27;10.63;;;;;;;5.18;100.00;92259.16;6196814;23;20012;-80
2023/02/23 04:34:27;;;;;;;15.23;10.55;;;;;;;5.16;100.00;92256.03;6198682;23;20004;-80
2023/02/23 04:36:54;;;;;;;16.85;11.30;;;;;;;5.14;100.00;92259.94;6225220;23;20012;-80
2023/02/23 04:39:19;;;;;;;16.27;10.68;;;;;;;5.13;100.00;92255.78;6198110;23;20046;-80
2023/02/23 04:41:47;;;;;;;14.40;9.90;;;;;;;5.10;100.00;92262.25;6224535;23;20017;-79
2023/02/23 04:44:14;;;;;;;16.05;10.38;;;;;;;5.09;100.00;92259.91;6222765;23;20354;-78
2023/02/23 04:46:39;;;;;;;16.23;10.38;;;;;;;5.04;100.00;92255.50;6221807;23;20012;-79
2023/02/23 04:49:05;;;;;;;16.00;10.98;;;;;;;5.02;100.00;92260.16;6221072;23;20076;-78
2023/02/23 04:51:32;;;;;;;17.02;10.02;;;;;;;4.99;100.00;92260.69;6220627;23;20072;-77
2023/02/23 04:53:58;;;;;;;13.65;10.38;;;;;;;4.96;100.00;92261.97;6220602;23;20008;-77
2023/02/23 04:56:24;;;;;;;16.05;10.65;;;;;;;4.93;100.00;92257.31;6220409;23;20019;-78
2023/02/23 04:58:51;;;;;;;14.02;10.23;;;;;;;4.90;100.00;92263.00;6219733;23;20051;-79
2023/02/23 05:01:17;;;;;;;15.52;10.07;;;;;;;4.87;100.00;92257.56;6221986;23;20015;-78
2023/02/23 05:03:42;;;;;;;16.30;10.35;;;;;;;4.84;100.00;92252.88;6145181;23;20013;-78
2023/02/23 05:06:08;;;;;;;16.00;10.20;;;;;;;4.82;100.00;92254.94;6195329;23;20390;-78
2023/02/23 05:08:33;;;;;;;17.48;11.15;;;;;;;4.80;100.00;92261.16;6195045;23;20087;-78
2023/02/23 05:10:59;;;;;;;16.42;11.15;;;;;;;4.78;100.00;92260.63;6220931;23;20012;-78
2023/02/23 05:13:24;;;;;;;17.38;11.40;;;;;;;4.76;100.00;92256.75;6221364;23;20027;-78
2023/02/23 05:15:54;;;;;;;14.93;10.68;;;;;;;4.73;100.00;92260.63;6221319;23;20514;-79
2023/02/23 05:18:20;;;;;;;15.00;10.38;;;;;;;4.68;100.00;92250.22;6193527;23;20016;-78
2023/02/23 05:20:46;;;;;;;18.00;11.25;;;;;;;4.69;100.00;92256.97;6223649;23;20001;-79
2023/02/23 05:23:12;;;;;;;15.25;10.30;;;;;;;4.63;100.00;92247.63;6223452;23;20123;-78
2023/02/23 05:25:38;;;;;;;16.10;10.60;;;;;;;4.59;100.00;92251.75;6222729;23;20349;-78
2023/02/23 05:28:05;;;;;;;15.98;10.95;;;;;;;4.55;100.00;92255.91;6197852;23;20032;-78
2023/02/23 05:30:30;;;;;;;16.38;11.25;;;;;;;4.48;100.00;92260.53;6197232;23;20054;-80
2023/02/23 05:32:57;;;;;;;18.48;10.82;;;;;;;4.42;100.00;92259.75;6196317;23;20094;-78
2023/02/23 05:35:22;;;;;;;16.02;11.02;;;;;;;4.38;100.00;92256.88;6222468;23;20000;-79
2023/02/23 05:37:48;;;;;;;17.27;10.55;;;;;;;4.36;100.00;92261.53;6222347;23;20063;-79
2023/02/23 05:40:14;;;;;;;17.42;11.15;;;;;;;4.31;100.00;92255.56;6196813;23;20005;-78
2023/02/23 05:42:39;;;;;;;16.98;10.88;;;;;;;4.28;100.00;92253.44;6222132;23;20005;-79
2023/02/23 05:45:06;;;;;;;14.45;10.73;;;;;;;4.23;100.00;92259.38;6224500;23;20005;-79
2023/02/23 05:47:37;;;;;;;16.10;10.82;;;;;;;4.21;100.00;92258.09;6225219;23;20013;-79
2023/02/23 05:50:08;;;;;;;15.90;10.50;;;;;;;4.21;100.00;92258.88;6224393;23;20016;-78
2023/02/23 05:52:40;;;;;;;17.52;11.15;;;;;;;4.19;100.00;92266.13;6223458;23;20020;-78
2023/02/23 05:55:08;;;;;;;18.10;10.70;;;;;;;4.18;100.00;92262.72;6198445;23;20013;-79
2023/02/23 05:57:34;;;;;;;15.77;11.23;;;;;;;4.20;100.00;92267.69;6197513;23;20005;-79
2023/02/23 06:00:00;;;;;;;17.50;11.60;;;;;;;4.19;100.00;92263.53;6196972;23;20020;-78
2023/02/23 06:02:26;;;;;;;17.08;11.68;;;;;;;4.22;100.00;92257.06;6197588;23;20000;-79
2023/02/23 06:04:52;;;;;;;19.15;11.13;;;;;;;4.24;100.00;92260.19;6224199;23;20343;-79
2023/02/23 06:07:18;;;;;;;15.43;10.13;;;;;;;4.27;100.00;92263.03;6197434;23;20000;-79
2023/02/23 06:09:43;;;;;;;18.23;11.48;;;;;;;4.27;100.00;92259.69;6198245;23;20017;-79
2023/02/23 06:12:09;;;;;;;18.13;11.18;;;;;;;4.32;100.00;92260.50;6197233;23;20005;-79
2023/02/23 06:14:35;;;;;;;17.50;11.70;;;;;;;4.31;100.00;92260.75;6196941;23;20021;-79
2023/02/23 06:17:00;;;;;;;17.63;11.68;;;;;;;4.34;100.00;92265.41;6196654;23;20425;-79
2023/02/23 06:19:26;;;;;;;20.30;11.80;;;;;;;4.35;100.00;92267.75;6224035;23;20020;-79
2023/02/23 06:21:52;;;;;;;17.88;11.65;;;;;;;4.35;100.00;92267.75;6195055;23;20027;-77
2023/02/23 06:24:18;;;;;;;17.15;12.00;;;;;;;4.42;100.00;92271.94;6223926;23;20020;-79
2023/02/23 06:26:44;;;;;;;18.00;12.82;;;;;;;4.43;100.00;92268.28;6223063;23;20021;-79
2023/02/23 06:29:10;;;;;;;19.42;12.52;;;;;;;4.45;100.00;92271.41;6196757;23;20028;-80
2023/02/23 06:31:37;;;;;;;17.73;11.93;;;;;;;4.45;100.00;92271.41;6215151;23;20357;-77
2023/02/23 06:34:03;;;;;;;17.48;12.73;;;;;;;4.49;100.00;92268.06;6188867;23;20107;-77
2023/02/23 06:36:29;;;;;;;20.55;12.27;;;;;;;4.54;100.00;92275.06;6189059;23;20035;-76
2023/02/23 06:38:58;;;;;;;20.58;12.45;;;;;;;4.57;100.00;92280.53;6216144;23;20055;-77
2023/02/23 06:41:24;;;;;;;19.73;12.80;;;;;;;4.62;100.00;92276.41;6188060;23;20391;-77
2023/02/23 06:43:50;;;;;;;18.75;12.50;;;;;;;4.65;100.00;92281.84;6188241;23;20016;-77
2023/02/23 06:46:17;;;;;;;18.02;12.93;;;;;;;4.71;100.00;92283.44;6187674;23;20004;-77
2023/02/23 06:48:42;;;;;;;18.70;12.75;;;;;;;4.76;100.00;92288.63;6165735;23;20082;-77
2023/02/23 06:51:08;;;;;;;17.60;12.35;;;;;;;4.79;100.00;92290.72;6191499;23;20091;-78
2023/02/23 06:53:35;;;;;;;19.80;13.05;;;;;;;4.83;100.00;92296.19;6196087;23;20016;-78
2023/02/23 06:56:02;;;;;;;19.92;13.18;;;;;;;4.84;100.00;92292.56;6222777;23;20005;-77
2023/02/23 06:58:28;;;;;;;21.23;13.25;;;;;;;4.91;100.00;92297.47;6223799;23;20013;-79
2023/02/23 07:00:55;;;;;;;18.98;12.65;;;;;;;4.93;100.00;92295.41;6197335;23;20034;-78
2023/02/23 07:03:22;;;;;;;22.17;13.05;;;;;;;4.98;100.00;92300.66;6198026;23;20468;-78
2023/02/23 07:05:49;;;;;;;18.48;12.40;;;;;;;5.03;100.00;92299.88;6222935;23;20004;-78
2023/02/23 07:08:15;;;;;;;18.15;12.73;;;;;;;5.10;100.00;92305.59;6222876;23;20019;-79
2023/02/23 07:10:41;;;;;;;18.88;12.98;;;;;;;5.16;100.00;92312.34;6196912;23;20016;-79
2023/02/23 07:13:07;;;;;;;20.17;12.85;;;;;;;5.21;100.00;92309.75;6223322;23;20076;-79
2023/02/23 07:15:35;;;;;;;16.55;11.98;;;;;;;5.28;100.00;92315.47;6224069;23;20484;-78
2023/02/23 07:18:00;;;;;;;19.17;12.82;;;;;;;5.35;100.00;92315.22;6223975;23;20021;-77
2023/02/23 07:20:26;;;;;;;20.00;12.73;;;;;;;5.42;100.00;92315.75;6223173;23;20043;-79
2023/02/23 07:22:53;;;;;;;17.98;12.70;;;;;;;5.44;100.00;92318.88;6222690;23;20068;-79
2023/02/23 07:25:20;;;;;;;19.00;12.93;;;;;;;5.48;100.00;92325.13;6224830;23;20519;-79
2023/02/23 07:27:46;;;;;;;21.42;14.00;;;;;;;5.53;100.00;92319.91;6198713;23;20028;-79
2023/02/23 07:30:12;;;;;;;20.77;13.00;;;;;;;5.59;100.00;92321.50;6225554;23;20023;-78
2023/02/23 07:32:38;;;;;;;19.08;13.00;;;;;;;5.61;100.00;92321.25;6198200;23;20349;-78
2023/02/23 07:35:05;;;;;;;19.80;13.85;;;;;;;5.60;100.00;92322.25;6224638;23;20001;-78
2023/02/23 07:37:31;;;;;;;20.42;13.15;;;;;;;5.62;100.00;92315.00;6173877;23;20543;-79
2023/02/23 07:39:56;;;;;;;21.52;14.43;;;;;;;5.75;100.00;92324.88;6198040;23;20008;-77
2023/02/23 07:42:22;;;;;;;20.38;13.95;;;;;;;5.88;100.00;92318.38;6173963;23;20035;-78
2023/02/23 07:44:48;;;;;;;20.63;14.02;;;;;;;6.00;100.00;92336.31;6198342;23;20440;-78
2023/02/23 07:47:14;;;;;;;17.65;13.40;;;;;;;6.37;100.00;92320.44;6198149;23;20024;-78
2023/02/23 07:49:41;;;;;;;19.33;12.02;;;;;;;6.67;100.00;92326.59;6197641;23;20000;-79
2023/02/23 07:52:07;;;;;;;20.60;13.70;;;;;;;6.60;100.00;92313.09;6224335;23;20023;-78
2023/02/23 07:54:33;;;;;;;18.13;13.15;;;;;;;6.70;100.00;92328.66;6147973;23;20004;-78
2023/02/23 07:56:59;;;;;;;18.75;13.60;;;;;;;6.62;100.00;92331.78;6173199;23;20024;-78
2023/02/23 07:59:25;;;;;;;21.50;14.05;;;;;;;6.60;100.00;92331.28;6225415;23;20004;-78
2023/02/23 08:01:51;;;;;;;18.00;12.98;;;;;;;6.83;100.00;92322.88;6224765;23;20013;-78
2023/02/23 08:04:17;;;;;;;17.90;13.02;;;;;;;6.82;100.00;92323.94;6224728;23;20000;-78
2023/02/23 08:06:43;;;;;;;21.83;12.52;;;;;;;6.94;100.00;92338.47;6222203;23;20016;-78
2023/02/23 08:09:10;;;;;;;19.83;13.82;;;;;;;6.76;100.00;92327.59;6195029;23;20028;-78
2023/02/23 08:11:45;;;;;;;24.25;14.65;;;;;;;6.84;100.00;92326.25;6227161;23;20013;-80
2023/02/23 08:14:11;;;;;;;32.75;15.00;;;;;;;6.92;100.00;92332.75;6228631;23;20020;-79
2023/02/23 08:16:37;;;;;;;21.88;13.70;;;;;;;7.02;100.00;92333.44;6227186;23;20479;-79
2023/02/23 08:19:03;;;;;;;22.40;15.70;;;;;;;7.30;100.00;92329.41;6226584;23;20012;-78
2023/02/23 08:21:29;;;;;;;20.90;14.98;;;;;;;7.59;100.00;92333.13;6197407;23;20001;-77
2023/02/23 08:23:56;;;;;;;20.88;14.88;;;;;;;7.81;100.00;92333.50;6197965;23;20040;-79
2023/02/23 08:26:23;;;;;;;20.05;14.00;;;;;;;8.10;100.00;92337.97;6211312;23;20098;-78
2023/02/23 08:28:49;;;;;;;18.73;12.93;;;;;;;8.31;100.00;92338.59;6222946;23;20039;-79
2023/02/23 08:31:17;;;;;;;19.05;13.82;;;;;;;8.60;100.00;92333.38;6197908;23;20091;-78
2023/02/23 08:33:43;;;;;;;18.45;11.15;;;;;;;8.93;100.00;92334.28;6223487;23;20016;-79
2023/02/23 08:36:09;;;;;;;13.75;7.47;;;;;;;8.83;100.00;92334.44;6222761;23;20005;-79
2023/02/23 08:38:38;;;;;;;18.38;13.07;;;;;;;8.95;100.00;92340.03;6223841;23;20023;-79
2023/02/23 08:41:04;;;;;;;17.48;11.95;;;;;;;9.10;100.00;92333.06;6224197;23;20084;-78
2023/02/23 08:43:30;;;;;;;13.32;9.20;;;;;;;9.06;100.00;92338.06;6196803;23;20080;-78
2023/02/23 08:45:56;;;;;;;16.90;12.82;;;;;;;8.86;100.00;92341.69;6224764;23;20001;-78
2023/02/23 08:48:23;;;;;;;19.30;12.98;;;;;;;8.89;100.00;92345.56;6220877;23;20013;-80
2023/02/23 08:50:49;;;;;;;16.73;10.73;;;;;;;9.00;100.00;92338.41;6220669;23;20004;-80
2023/02/23 08:53:16;;;;;;;16.85;10.75;;;;;;;9.21;100.00;92337.13;6218060;23;20353;-79
2023/02/23 08:55:41;;;;;;;17.58;13.65;;;;;;;9.14;100.00;92340.06;6216652;23;20003;-80
2023/02/23 08:58:09;;;;;;;15.23;10.57;;;;;;;9.51;100.00;92345.59;6223591;23;20008;-79
2023/02/23 09:04:00;;;;;;;17.80;12.00;;;;;;;9.51;100.00;92346.38;6223374;23;20008;-79
2023/02/23 09:06:26;;;;;;;19.25;13.07;;;;;;;9.50;100.00;92346.66;6223921;23;20011;-78
2023/02/23 09:08:54;;;;;;;10.48;7.30;;;;;;;9.73;100.00;92351.03;6222196;23;20016;-79
2023/02/23 09:11:21;;;;;;;19.55;13.20;;;;;;;9.50;100.00;92344.84;6221379;23;20016;-79
2023/02/23 09:13:46;;;;;;;18.02;13.13;;;;;;;9.69;100.00;92352.66;6219589;23;20057;-80
2023/02/23 09:16:13;;;;;;;19.63;12.20;;;;;;;9.42;100.00;92350.69;6219118;23;20008;-79
2023/02/23 09:18:40;;;;;;;17.02;12.65;;;;;;;9.19;100.00;92354.91;6214713;23;20032;-78
2023/02/23 09:21:07;;;;;;;15.35;9.10;;;;;;;9.18;100.00;92354.09;6215105;23;20003;-79
2023/02/23 09:23:34;;;;;;;17.60;12.18;;;;;;;9.03;100.00;92353.50;6216156;23;20008;-78
2023/02/23 09:26:04;;;;;;;18.13;12.77;;;;;;;9.17;100.00;92343.97;6215665;23;20017;-79
2023/02/23 09:28:32;;;;;;;20.25;13.30;;;;;;;9.16;100.00;92356.25;6215466;23;20091;-79
2023/02/23 09:31:05;;;;;;;16.30;12.07;;;;;;;9.22;100.00;92343.13;6217520;23;20087;-79
2023/02/23 09:33:30;;;;;;;19.48;11.35;;;;;;;9.17;100.00;92347.34;6220152;23;20040;-78
2023/02/23 09:35:56;;;;;;;15.77;11.43;;;;;;;9.37;100.00;92348.16;6218944;23;20015;-79
2023/02/23 09:38:23;;;;;;;16.35;10.50;;;;;;;9.54;100.00;92343.19;6218494;23;20012;-76
2023/02/23 09:40:54;;;;;;;15.52;10.65;;;;;;;9.67;100.00;92348.78;6218268;23;20063;-77
2023/02/23 09:43:31;;;;;;;14.90;10.73;;;;;;;9.36;100.00;92342.13;6193051;23;20361;-78
2023/02/23 09:46:10;;;;;;;10.88;6.75;;;;;;;9.58;100.00;92351.25;6216905;23;20346;-79
2023/02/23 09:48:36;;;;;;;16.08;11.95;;;;;;;9.82;100.00;92351.19;6216834;23;20064;-79
2023/02/23 09:51:07;;;;;;;15.00;11.18;;;;;;;9.90;99.94;92350.53;6216502;23;20004;-80
2023/02/23 09:53:38;;;;;;;15.85;11.13;;;;;;;10.26;100.00;92349.19;6217436;23;20015;-80
2023/02/23 09:56:12;;;;;;;15.25;10.45;;;;;;;10.28;96.29;92353.06;6218481;23;20487;-78
2023/02/23 09:58:39;;;;;;;18.08;9.52;;;;;;;10.41;99.89;92348.97;6220425;23;20009;-78
2023/02/23 10:01:47;;;;;;;9.50;6.63;;;;;;;10.34;100.00;92343.34;6221085;23;20001;-78
2023/02/23 10:04:40;;;;;;;26.27;12.60;;;;;;;10.49;100.00;92345.72;6219226;23;20087;-78
2023/02/23 10:07:08;;;;;;;20.50;13.07;;;;;;;10.61;100.00;92353.84;6195708;23;20036;-78
2023/02/23 10:09:51;;;;;;;16.00;10.90;;;;;;;10.87;99.83;92340.28;6196108;23;20019;-79
2023/02/23 10:12:49;;;;;;;10.45;7.40;;;;;;;10.97;97.61;92342.72;6195069;23;20013;-78
2023/02/23 10:16:02;;;;;;;11.65;8.35;;;;;;;10.93;95.58;92335.75;6195793;23;20091;-78
2023/02/23 10:18:50;;;;;;;17.35;10.60;;;;;;;11.04;95.25;92343.09;6212789;23;20017;-79
2023/02/23 10:21:37;;;;;;;18.00;9.27;;;;;;;11.24;94.55;92346.41;6196154;23;20008;-78
2023/02/23 10:24:11;;;;;;;13.48;10.13;;;;;;;10.82;95.75;92346.41;6195873;23;20014;-78
2023/02/23 10:26:52;;;;;;;12.85;9.27;;;;;;;10.90;95.45;92344.16;6221434;23;20032;-78
2023/02/23 10:29:26;;;;;;;19.45;11.73;;;;;;;10.58;96.45;92338.75;6220953;23;20009;-79
2023/02/23 10:31:59;;;;;;;15.35;11.00;;;;;;;10.45;96.33;92342.09;6218983;23;20055;-79
2023/02/23 10:34:28;;;;;;;20.48;9.65;;;;;;;10.69;95.98;92349.78;6194981;23;20032;-78
2023/02/23 10:37:03;;;;;;;15.02;11.43;;;;;;;10.48;96.13;92352.00;6218688;23;20475;-77
2023/02/23 10:39:30;;;;;;;25.70;11.15;;;;;;;10.49;95.84;92353.56;6216913;23;20017;-77
2023/02/23 10:41:59;;;;;;;17.10;10.40;;;;;;;10.41;97.95;92349.75;6215999;23;19992;-77
2023/02/23 10:44:27;;;;;;;14.60;9.43;;;;;;;10.06;96.12;92355.53;6214403;23;20357;-77
2023/02/23 10:47:00;;;;;;;21.38;12.30;;;;;;;9.96;98.98;92346.00;6214117;23;20021;-77
2023/02/23 10:49:38;;;;;;;15.18;10.88;;;;;;;9.98;98.34;92351.72;6214008;23;20004;-77
2023/02/23 10:52:06;;;;;;;14.30;10.20;;;;;;;9.96;98.26;92351.22;6213882;23;20201;-77
2023/02/23 10:54:46;;;;;;;12.38;5.75;;;;;;;10.04;96.99;92350.56;6188959;23;20005;-77
2023/02/23 10:57:24;;;;;;;13.07;9.40;;;;;;;9.58;100.00;92353.88;6214856;23;20013;-77
2023/02/23 11:00:16;;;;;;;13.15;8.38;;;;;;;9.49;99.60;92350.34;6219252;23;20436;-78
2023/02/23 11:02:43;;;;;;;5.85;4.53;;;;;;;9.58;100.00;92349.41;6213365;23;20015;-77
2023/02/23 11:05:36;;;;;;;11.00;7.47;;;;;;;9.52;99.63;92349.75;6192656;23;20011;-77
2023/02/23 11:08:21;;;;;;;14.80;10.00;;;;;;;9.36;100.00;92347.34;6220422;23;20036;-78
2023/02/23 11:11:03;;;;;;;14.25;9.32;;;;;;;9.59;100.00;92345.75;6224996;23;20024;-78
2023/02/23 11:13:48;;;;;;;10.77;7.65;;;;;;;9.67;99.30;92346.94;6197429;23;20385;-78
2023/02/23 11:16:27;;;;;;;9.70;6.20;;;;;;;9.40;99.32;92350.19;6222514;23;20008;-78
2023/02/23 11:18:56;;;;;;;13.85;8.10;;;;;;;9.40;99.18;92347.56;6219330;23;20019;-78
2023/02/23 11:21:33;;;;;;;15.30;9.85;;;;;;;9.34;100.00;92344.25;6218952;23;20018;-78
2023/02/23 11:24:11;;;;;;;14.77;8.80;;;;;;;9.69;99.68;92344.06;6220357;23;20467;-79
2023/02/23 11:26:41;;;;;;;14.25;9.27;;;;;;;9.95;97.46;92337.41;6215402;23;20357;-78
2023/02/23 11:29:15;;;;;;;13.07;9.50;;;;;;;9.79;97.97;92339.47;6195008;23;20015;-79
2023/02/23 11:31:47;;;;;;;13.80;8.45;;;;;;;10.10;96.72;92341.59;6192649;23;20096;-78
2023/02/23 11:34:21;;;;;;;11.13;7.97;;;;;;;10.07;93.63;92333.56;6192301;23;20008;-78
2023/02/23 11:36:59;;;;;;;12.70;9.20;;;;;;;9.91;92.80;92330.41;6218627;23;20349;-77
2023/02/23 11:39:24;;;;;;;10.63;7.05;;;;;;;10.20;92.27;92328.34;6217412;23;20036;-78
2023/02/23 11:42:24;;;;;;;12.77;9.85;;;;;;;10.06;93.27;92326.75;6219208;23;20035;-77
2023/02/23 11:45:20;;;;;;;10.30;7.43;;;;;;;10.03;94.02;92320.25;6218419;23;20055;-78
2023/02/23 11:47:49;;;;;;;10.55;6.35;;;;;;;9.88;94.27;92321.25;6204309;23;20017;-79
2023/02/23 11:50:25;;;;;;;13.35;7.95;;;;;;;9.75;95.43;92324.63;6218152;23;20000;-78
2023/02/23 11:53:05;;;;;;;12.07;8.77;;;;;;;9.60;96.60;92323.00;6216273;23;20013;-78
2023/02/23 11:55:33;;;;;;;12.93;9.70;;;;;;;9.69;98.59;92316.06;6189006;23;20017;-77
2023/02/23 11:58:24;;;;;;;9.55;6.65;;;;;;;9.66;97.99;92319.25;6188614;23;20001;-78
2023/02/23 12:01:02;;;;;;;11.82;8.70;;;;;;;9.49;98.92;92329.44;6191199;23;20012;-79
2023/02/23 12:03:32;;;;;;;14.50;10.07;;;;;;;9.47;100.00;92323.72;6218705;23;20043;-79
2023/02/23 12:05:58;;;;;;;13.18;9.50;;;;;;;9.35;100.00;92318.91;6218015;23;20437;-80
2023/02/23 12:08:48;;;;;;;12.65;8.90;;;;;;;9.47;98.74;92318.47;6217764;23;19996;-78
2023/02/23 12:11:21;;;;;;;14.75;9.57;;;;;;;9.34;99.71;92330.41;6191920;23;20095;-78
2023/02/23 12:13:50;;;;;;;;;;;;;;;9.42;100.00;92318.56;6221824;23;20012;-79
2023/02/23 12:16:27;;;;;;;12.52;8.60;;;;;;;9.66;96.81;92318.47;6224291;23;20331;-80
2023/02/23 12:19:02;;;;;;;14.95;9.80;;;;;;;9.68;97.73;92321.56;6201789;23;20104;-80
2023/02/23 12:21:40;;;;;;;14.35;10.45;;;;;;;9.76;98.10;92311.25;6202679;23;20009;-78
2023/02/23 12:24:27;;;;;;;13.70;10.32;;;;;;;9.94;98.24;92309.69;6226414;23;20009;-80
2023/02/23 12:27:05;;;;;;;14.25;10.70;;;;;;;10.01;98.21;92312.69;6222147;23;20044;-79
2023/02/23 12:29:40;;;;;;;13.35;9.88;;;;;;;10.13;97.33;92312.25;6193554;23;20016;-78
2023/02/23 12:32:33;;;;;;;14.25;11.13;;;;;;;10.09;98.76;92313.91;6190694;23;20095;-78
2023/02/23 12:35:21;;;;;;;13.63;9.63;;;;;;;10.08;99.27;92314.16;6216958;23;20013;-78
2023/02/23 12:37:54;;;;;;;15.60;10.55;;;;;;;9.68;100.00;92306.69;6189960;23;20013;-77
2023/02/23 12:40:26;;;;;;;15.90;10.73;;;;;;;9.59;100.00;92306.56;6217116;23;20012;-78
2023/02/23 12:43:13;;;;;;;12.48;7.28;;;;;;;9.58;100.00;92309.44;6217047;23;20032;-77
2023/02/23 12:46:03;;;;;;;16.40;11.45;;;;;;;9.38;100.00;92302.66;6216701;23;20008;-76
2023/02/23 12:49:12;;;;;;;18.08;12.07;;;;;;;9.27;100.00;92307.25;6186830;23;20036;-77
2023/02/23 12:51:43;;;;;;;16.27;10.77;;;;;;;9.20;100.00;92295.59;6185767;23;20016;-76
2023/02/23 12:54:11;;;;;;;11.52;8.52;;;;;;;9.31;100.00;92305.63;6188056;23;20012;-77
2023/02/23 12:57:00;;;;;;;12.75;8.95;;;;;;;9.13;100.00;92301.16;6219458;23;20374;-79
2023/02/23 12:59:52;;;;;;;18.00;10.95;;;;;;;9.02;100.00;92299.75;6218006;23;20035;-77
2023/02/23 13:02:30;;;;;;;18.95;12.95;;;;;;;8.91;100.00;92299.09;6217438;23;20004;-77